Terminal Aerodrome Forecast
Issued by NWS Quad Cities IA IL

Home | Current Version | Previous Version | Text Only | Print | Product List | Glossary On
Versions: 1 2 3 4 5 6 7 8 9 10 11 12 13 14 15 16 17 18 19 20
000
FTUS43 KDVN 121720
TAFMLI
TAF
KMLI 121720Z 1218/1318 31014G18KT P6SM SKC
     FM122300 29010KT P6SM SCT130
     FM130300 24006KT P6SM OVC070
     FM130700 18006KT P6SM SCT200
     FM131500 22013KT P6SM BKN100=

USA.gov is the U.S. government's official web portal to all federal, state and local government web resources and services.